sensor_id;sensor_type;location;lat;lon;timestamp;noise_LAeq;noise_LA_min;noise_LA_max;noise_LA01;noise_LA95
66460;Laerm;58055;52.456;4.738;2022-12-07T00:00:07;36.20;33.50;38.77;;
66460;Laerm;58055;52.456;4.738;2022-12-07T00:00:18;36.96;34.07;46.30;;
66460;Laerm;58055;52.456;4.738;2022-12-07T00:00:28;36.35;34.18;40.09;;
66460;Laerm;58055;52.456;4.738;2022-12-07T00:00:39;35.32;33.58;39.57;;
66460;Laerm;58055;52.456;4.738;2022-12-07T00:00:49;34.84;32.47;38.09;;
66460;Laerm;58055;52.456;4.738;2022-12-07T00:01:06;36.06;32.79;40.96;;
66460;Laerm;58055;52.456;4.738;2022-12-07T00:01:23;35.72;33.35;40.41;;
66460;Laerm;58055;52.456;4.738;2022-12-07T00:01:34;35.75;32.11;43.28;;
66460;Laerm;58055;52.456;4.738;2022-12-07T00:01:45;35.19;32.69;38.42;;
66460;Laerm;58055;52.456;4.738;2022-12-07T00:01:56;34.98;32.64;44.15;;
66460;Laerm;58055;52.456;4.738;2022-12-07T00:02:06;34.97;33.01;38.22;;
66460;Laerm;58055;52.456;4.738;2022-12-07T00:02:16;34.98;32.82;38.06;;
66460;Laerm;58055;52.456;4.738;2022-12-07T00:02:27;34.24;32.47;37.12;;
66460;Laerm;58055;52.456;4.738;2022-12-07T00:02:37;35.14;33.17;37.04;;
66460;Laerm;58055;52.456;4.738;2022-12-07T00:02:47;34.35;32.53;36.31;;
66460;Laerm;58055;52.456;4.738;2022-12-07T00:02:57;34.95;32.68;39.21;;
66460;Laerm;58055;52.456;4.738;2022-12-07T00:03:08;34.42;32.02;37.55;;
66460;Laerm;58055;52.456;4.738;2022-12-07T00:03:18;35.01;32.74;37.36;;
66460;Laerm;58055;52.456;4.738;2022-12-07T00:03:28;35.90;33.24;38.92;;
66460;Laerm;58055;52.456;4.738;2022-12-07T00:03:39;34.48;32.41;36.61;;
66460;Laerm;58055;52.456;4.738;2022-12-07T00:03:51;34.12;32.21;41.52;;
66460;Laerm;58055;52.456;4.738;2022-12-07T00:04:02;34.57;32.44;36.72;;
66460;Laerm;58055;52.456;4.738;2022-12-07T00:04:16;36.12;32.90;40.36;;
66460;Laerm;58055;52.456;4.738;2022-12-07T00:04:27;36.64;34.24;39.57;;
66460;Laerm;58055;52.456;4.738;2022-12-07T00:04:37;35.66;33.46;38.48;;
66460;Laerm;58055;52.456;4.738;2022-12-07T00:04:48;35.00;33.15;41.10;;
66460;Laerm;58055;52.456;4.738;2022-12-07T00:04:58;35.29;33.23;39.30;;
66460;Laerm;58055;52.456;4.738;2022-12-07T00:05:09;35.26;32.90;36.96;;
66460;Laerm;58055;52.456;4.738;2022-12-07T00:05:19;35.90;33.21;39.86;;
66460;Laerm;58055;52.456;4.738;2022-12-07T00:05:29;35.47;33.25;38.63;;
66460;Laerm;58055;52.456;4.738;2022-12-07T00:05:39;35.39;33.34;38.52;;
66460;Laerm;58055;52.456;4.738;2022-12-07T00:05:50;35.19;33.54;37.95;;
66460;Laerm;58055;52.456;4.738;2022-12-07T00:06:00;35.67;33.86;39.45;;
66460;Laerm;58055;52.456;4.738;2022-12-07T00:06:12;35.61;33.59;37.68;;
66460;Laerm;58055;52.456;4.738;2022-12-07T00:06:22;35.44;33.62;39.04;;
66460;Laerm;58055;52.456;4.738;2022-12-07T00:06:36;35.76;33.64;38.96;;
66460;Laerm;58055;52.456;4.738;2022-12-07T00:06:50;37.01;33.75;41.12;;
66460;Laerm;58055;52.456;4.738;2022-12-07T00:07:00;42.46;34.89;50.60;;
66460;Laerm;58055;52.456;4.738;2022-12-07T00:07:11;38.09;33.85;42.16;;
66460;Laerm;58055;52.456;4.738;2022-12-07T00:07:21;37.27;35.19;40.14;;
66460;Laerm;58055;52.456;4.738;2022-12-07T00:07:32;37.60;34.70;40.99;;
66460;Laerm;58055;52.456;4.738;2022-12-07T00:07:42;37.04;34.68;39.09;;
66460;Laerm;58055;52.456;4.738;2022-12-07T00:07:52;36.90;34.38;40.18;;
66460;Laerm;58055;52.456;4.738;2022-12-07T00:08:02;35.36;33.33;37.39;;
66460;Laerm;58055;52.456;4.738;2022-12-07T00:08:13;35.05;33.27;37.04;;
66460;Laerm;58055;52.456;4.738;2022-12-07T00:08:23;34.96;33.29;37.22;;
66460;Laerm;58055;52.456;4.738;2022-12-07T00:08:33;35.52;33.47;38.79;;
66460;Laerm;58055;52.456;4.738;2022-12-07T00:08:44;35.20;32.93;37.19;;
66460;Laerm;58055;52.456;4.738;2022-12-07T00:08:54;34.78;32.84;36.25;;
66460;Laerm;58055;52.456;4.738;2022-12-07T00:09:05;34.55;32.75;37.01;;
66460;Laerm;58055;52.456;4.738;2022-12-07T00:09:17;34.59;32.56;36.53;;
66460;Laerm;58055;52.456;4.738;2022-12-07T00:09:27;34.47;32.87;36.28;;
66460;Laerm;58055;52.456;4.738;2022-12-07T00:09:37;34.45;32.59;35.97;;
66460;Laerm;58055;52.456;4.738;2022-12-07T00:09:48;34.48;32.50;36.74;;
66460;Laerm;58055;52.456;4.738;2022-12-07T00:09:59;34.40;32.80;36.28;;
66460;Laerm;58055;52.456;4.738;2022-12-07T00:10:09;34.41;32.78;37.06;;
66460;Laerm;58055;52.456;4.738;2022-12-07T00:10:19;34.55;32.80;36.63;;
66460;Laerm;58055;52.456;4.738;2022-12-07T00:10:29;34.94;32.90;37.20;;
66460;Laerm;58055;52.456;4.738;2022-12-07T00:10:40;34.88;32.29;37.51;;
66460;Laerm;58055;52.456;4.738;2022-12-07T00:10:50;35.26;33.45;38.65;;
66460;Laerm;58055;52.456;4.738;2022-12-07T00:11:14;34.64;32.86;36.74;;
66460;Laerm;58055;52.456;4.738;2022-12-07T00:11:25;34.71;32.71;37.22;;
66460;Laerm;58055;52.456;4.738;2022-12-07T00:11:35;34.81;32.62;36.86;;
66460;Laerm;58055;52.456;4.738;2022-12-07T00:11:47;35.01;32.94;37.03;;
66460;Laerm;58055;52.456;4.738;2022-12-07T00:11:58;35.44;32.68;38.00;;
66460;Laerm;58055;52.456;4.738;2022-12-07T00:12:08;39.37;35.53;45.07;;
66460;Laerm;58055;52.456;4.738;2022-12-07T00:12:19;44.77;41.64;57.99;;
66460;Laerm;58055;52.456;4.738;2022-12-07T00:12:29;44.82;41.50;63.20;;
66460;Laerm;58055;52.456;4.738;2022-12-07T00:12:39;42.79;41.16;54.20;;
66460;Laerm;58055;52.456;4.738;2022-12-07T00:12:49;46.50;40.82;68.35;;
66460;Laerm;58055;52.456;4.738;2022-12-07T00:13:00;45.20;41.73;62.87;;
66460;Laerm;58055;52.456;4.738;2022-12-07T00:13:10;51.11;43.09;74.52;;
66460;Laerm;58055;52.456;4.738;2022-12-07T00:13:20;46.92;44.82;57.33;;
66460;Laerm;58055;52.456;4.738;2022-12-07T00:13:31;46.45;44.03;58.78;;
66460;Laerm;58055;52.456;4.738;2022-12-07T00:13:42;44.85;42.98;53.14;;
66460;Laerm;58055;52.456;4.738;2022-12-07T00:13:59;44.76;42.78;55.70;;
66460;Laerm;58055;52.456;4.738;2022-12-07T00:14:11;42.65;40.22;47.18;;
66460;Laerm;58055;52.456;4.738;2022-12-07T00:14:22;43.19;40.27;54.93;;
66460;Laerm;58055;52.456;4.738;2022-12-07T00:14:32;45.39;41.14;55.08;;
66460;Laerm;58055;52.456;4.738;2022-12-07T00:14:42;43.05;40.98;47.34;;
66460;Laerm;58055;52.456;4.738;2022-12-07T00:14:53;44.42;41.96;49.99;;
66460;Laerm;58055;52.456;4.738;2022-12-07T00:15:03;44.88;42.21;53.60;;
66460;Laerm;58055;52.456;4.738;2022-12-07T00:15:13;42.73;40.62;51.68;;
66460;Laerm;58055;52.456;4.738;2022-12-07T00:15:24;47.59;42.62;67.31;;
66460;Laerm;58055;52.456;4.738;2022-12-07T00:15:34;44.32;42.64;54.62;;
66460;Laerm;58055;52.456;4.738;2022-12-07T00:15:45;44.24;39.69;51.40;;
66460;Laerm;58055;52.456;4.738;2022-12-07T00:15:59;39.06;37.12;44.06;;
66460;Laerm;58055;52.456;4.738;2022-12-07T00:16:11;37.45;35.54;42.71;;
66460;Laerm;58055;52.456;4.738;2022-12-07T00:16:22;37.11;35.40;44.13;;
66460;Laerm;58055;52.456;4.738;2022-12-07T00:16:33;36.67;34.74;40.68;;
66460;Laerm;58055;52.456;4.738;2022-12-07T00:16:43;35.93;33.71;42.20;;
66460;Laerm;58055;52.456;4.738;2022-12-07T00:16:54;35.68;33.79;37.74;;
66460;Laerm;58055;52.456;4.738;2022-12-07T00:17:04;35.72;33.61;39.17;;
66460;Laerm;58055;52.456;4.738;2022-12-07T00:17:14;35.18;33.50;39.91;;
66460;Laerm;58055;52.456;4.738;2022-12-07T00:17:25;34.74;33.17;36.96;;
66460;Laerm;58055;52.456;4.738;2022-12-07T00:17:35;34.74;33.11;37.06;;
66460;Laerm;58055;52.456;4.738;2022-12-07T00:17:45;34.69;33.20;37.38;;
66460;Laerm;58055;52.456;4.738;2022-12-07T00:17:55;35.86;33.14;43.91;;
66460;Laerm;58055;52.456;4.738;2022-12-07T00:18:05;36.25;34.70;38.19;;
66460;Laerm;58055;52.456;4.738;2022-12-07T00:18:16;36.20;34.67;37.70;;
66460;Laerm;58055;52.456;4.738;2022-12-07T00:18:26;36.29;34.60;38.34;;
66460;Laerm;58055;52.456;4.738;2022-12-07T00:18:36;37.45;34.93;43.63;;
66460;Laerm;58055;52.456;4.738;2022-12-07T00:18:47;36.88;35.46;41.62;;
66460;Laerm;58055;52.456;4.738;2022-12-07T00:18:57;36.92;35.35;39.30;;
66460;Laerm;58055;52.456;4.738;2022-12-07T00:19:08;36.92;35.12;38.62;;
66460;Laerm;58055;52.456;4.738;2022-12-07T00:19:19;37.32;35.18;39.09;;
66460;Laerm;58055;52.456;4.738;2022-12-07T00:19:29;37.15;35.31;39.06;;
66460;Laerm;58055;52.456;4.738;2022-12-07T00:19:39;36.96;35.35;38.60;;
66460;Laerm;58055;52.456;4.738;2022-12-07T00:19:50;37.36;35.59;39.40;;
66460;Laerm;58055;52.456;4.738;2022-12-07T00:20:00;37.48;35.52;39.20;;
66460;Laerm;58055;52.456;4.738;2022-12-07T00:20:10;36.84;35.09;38.86;;
66460;Laerm;58055;52.456;4.738;2022-12-07T00:20:21;36.86;35.36;38.88;;
66460;Laerm;58055;52.456;4.738;2022-12-07T00:20:31;35.00;32.15;41.99;;
66460;Laerm;58055;52.456;4.738;2022-12-07T00:20:41;34.68;32.99;40.51;;
66460;Laerm;58055;52.456;4.738;2022-12-07T00:20:51;36.91;33.03;45.96;;
66460;Laerm;58055;52.456;4.738;2022-12-07T00:21:11;34.83;32.70;38.79;;
66460;Laerm;58055;52.456;4.738;2022-12-07T00:21:23;34.54;32.54;38.50;;
66460;Laerm;58055;52.456;4.738;2022-12-07T00:21:34;34.28;32.66;36.38;;
66460;Laerm;58055;52.456;4.738;2022-12-07T00:21:45;34.21;32.35;37.57;;
66460;Laerm;58055;52.456;4.738;2022-12-07T00:21:55;35.24;32.47;41.55;;
66460;Laerm;58055;52.456;4.738;2022-12-07T00:22:05;34.54;32.66;36.51;;
66460;Laerm;58055;52.456;4.738;2022-12-07T00:22:15;34.34;32.54;38.21;;
66460;Laerm;58055;52.456;4.738;2022-12-07T00:22:26;34.39;32.46;38.66;;
66460;Laerm;58055;52.456;4.738;2022-12-07T00:22:36;34.25;32.32;36.27;;
66460;Laerm;58055;52.456;4.738;2022-12-07T00:22:46;34.20;32.25;38.60;;
66460;Laerm;58055;52.456;4.738;2022-12-07T00:22:56;34.15;32.18;36.83;;
66460;Laerm;58055;52.456;4.738;2022-12-07T00:23:07;34.42;32.55;37.74;;
66460;Laerm;58055;52.456;4.738;2022-12-07T00:23:17;34.15;32.13;38.83;;
66460;Laerm;58055;52.456;4.738;2022-12-07T00:23:27;34.08;32.33;36.42;;
66460;Laerm;58055;52.456;4.738;2022-12-07T00:23:38;33.91;32.03;36.44;;
66460;Laerm;58055;52.456;4.738;2022-12-07T00:23:49;33.96;32.44;38.48;;
66460;Laerm;58055;52.456;4.738;2022-12-07T00:24:00;34.03;32.14;39.78;;
66460;Laerm;58055;52.456;4.738;2022-12-07T00:24:10;34.13;32.17;36.36;;
66460;Laerm;58055;52.456;4.738;2022-12-07T00:24:21;33.91;32.42;35.92;;
66460;Laerm;58055;52.456;4.738;2022-12-07T00:24:31;34.29;32.64;37.23;;
66460;Laerm;58055;52.456;4.738;2022-12-07T00:24:42;34.46;32.71;36.89;;
66460;Laerm;58055;52.456;4.738;2022-12-07T00:24:52;34.27;32.44;37.46;;
66460;Laerm;58055;52.456;4.738;2022-12-07T00:25:02;34.37;32.24;38.45;;
66460;Laerm;58055;52.456;4.738;2022-12-07T00:25:12;34.43;32.60;38.05;;
66460;Laerm;58055;52.456;4.738;2022-12-07T00:25:23;34.40;32.60;36.74;;
66460;Laerm;58055;52.456;4.738;2022-12-07T00:25:33;34.23;32.43;36.73;;
66460;Laerm;58055;52.456;4.738;2022-12-07T00:25:43;33.97;32.30;36.38;;
66460;Laerm;58055;52.456;4.738;2022-12-07T00:25:53;33.76;32.09;38.70;;
66460;Laerm;58055;52.456;4.738;2022-12-07T00:26:05;33.99;32.56;36.52;;
66460;Laerm;58055;52.456;4.738;2022-12-07T00:26:19;33.84;31.70;36.50;;
66460;Laerm;58055;52.456;4.738;2022-12-07T00:26:30;33.91;32.46;36.08;;
66460;Laerm;58055;52.456;4.738;2022-12-07T00:26:41;34.34;32.82;36.67;;
66460;Laerm;58055;52.456;4.738;2022-12-07T00:26:51;34.41;32.45;36.33;;
66460;Laerm;58055;52.456;4.738;2022-12-07T00:27:02;33.99;32.29;36.09;;
66460;Laerm;58055;52.456;4.738;2022-12-07T00:27:12;33.88;32.15;36.60;;
66460;Laerm;58055;52.456;4.738;2022-12-07T00:27:22;34.26;32.31;37.80;;
66460;Laerm;58055;52.456;4.738;2022-12-07T00:27:32;35.46;32.91;47.38;;
66460;Laerm;58055;52.456;4.738;2022-12-07T00:27:42;34.24;32.10;36.42;;
66460;Laerm;58055;52.456;4.738;2022-12-07T00:27:53;32.95;31.23;35.68;;
66460;Laerm;58055;52.456;4.738;2022-12-07T00:28:06;33.12;31.38;36.53;;
66460;Laerm;58055;52.456;4.738;2022-12-07T00:28:17;33.01;30.86;35.70;;
66460;Laerm;58055;52.456;4.738;2022-12-07T00:28:28;33.31;31.65;37.43;;
66460;Laerm;58055;52.456;4.738;2022-12-07T00:28:38;32.85;31.06;35.38;;
66460;Laerm;58055;52.456;4.738;2022-12-07T00:28:52;32.68;30.79;36.53;;
66460;Laerm;58055;52.456;4.738;2022-12-07T00:29:06;32.61;31.13;35.51;;
66460;Laerm;58055;52.456;4.738;2022-12-07T00:29:18;32.66;30.76;35.51;;
66460;Laerm;58055;52.456;4.738;2022-12-07T00:29:29;32.55;30.95;36.53;;
66460;Laerm;58055;52.456;4.738;2022-12-07T00:29:39;32.63;31.28;35.42;;
66460;Laerm;58055;52.456;4.738;2022-12-07T00:29:49;32.59;31.02;35.43;;
66460;Laerm;58055;52.456;4.738;2022-12-07T00:29:59;32.66;30.96;36.53;;
66460;Laerm;58055;52.456;4.738;2022-12-07T00:30:10;32.86;31.06;35.96;;
66460;Laerm;58055;52.456;4.738;2022-12-07T00:30:20;32.77;31.17;36.12;;
66460;Laerm;58055;52.456;4.738;2022-12-07T00:30:30;32.70;30.77;36.18;;
66460;Laerm;58055;52.456;4.738;2022-12-07T00:30:41;32.75;31.11;35.51;;
66460;Laerm;58055;52.456;4.738;2022-12-07T00:30:51;32.67;31.24;35.12;;
66460;Laerm;58055;52.456;4.738;2022-12-07T00:31:09;32.92;31.47;34.58;;
66460;Laerm;58055;52.456;4.738;2022-12-07T00:31:20;34.58;31.54;39.86;;
66460;Laerm;58055;52.456;4.738;2022-12-07T00:31:32;34.85;31.76;42.52;;
66460;Laerm;58055;52.456;4.738;2022-12-07T00:31:43;33.91;31.36;36.93;;
66460;Laerm;58055;52.456;4.738;2022-12-07T00:31:54;33.28;31.68;39.32;;
66460;Laerm;58055;52.456;4.738;2022-12-07T00:32:04;33.20;31.53;36.76;;
66460;Laerm;58055;52.456;4.738;2022-12-07T00:32:14;33.46;31.45;37.08;;
66460;Laerm;58055;52.456;4.738;2022-12-07T00:32:24;33.24;31.13;37.78;;
66460;Laerm;58055;52.456;4.738;2022-12-07T00:32:35;33.54;31.83;36.75;;
66460;Laerm;58055;52.456;4.738;2022-12-07T00:32:45;33.61;31.92;35.38;;
66460;Laerm;58055;52.456;4.738;2022-12-07T00:32:55;33.99;32.58;36.06;;
66460;Laerm;58055;52.456;4.738;2022-12-07T00:33:06;34.13;32.32;37.65;;
66460;Laerm;58055;52.456;4.738;2022-12-07T00:33:16;34.16;32.78;36.60;;
66460;Laerm;58055;52.456;4.738;2022-12-07T00:33:26;33.89;31.82;38.20;;
66460;Laerm;58055;52.456;4.738;2022-12-07T00:33:38;33.77;32.17;36.23;;
66460;Laerm;58055;52.456;4.738;2022-12-07T00:33:49;33.93;32.30;38.73;;
66460;Laerm;58055;52.456;4.738;2022-12-07T00:34:00;33.86;32.30;36.00;;
66460;Laerm;58055;52.456;4.738;2022-12-07T00:34:14;33.99;32.02;37.84;;
66460;Laerm;58055;52.456;4.738;2022-12-07T00:34:24;34.05;32.11;36.40;;
66460;Laerm;58055;52.456;4.738;2022-12-07T00:34:35;34.23;32.55;37.36;;
66460;Laerm;58055;52.456;4.738;2022-12-07T00:34:45;33.95;31.87;36.16;;
66460;Laerm;58055;52.456;4.738;2022-12-07T00:34:55;33.91;31.80;36.34;;
66460;Laerm;58055;52.456;4.738;2022-12-07T00:35:05;34.02;31.79;37.75;;
66460;Laerm;58055;52.456;4.738;2022-12-07T00:35:16;34.13;32.42;36.73;;
66460;Laerm;58055;52.456;4.738;2022-12-07T00:35:26;34.11;32.55;36.42;;
66460;Laerm;58055;52.456;4.738;2022-12-07T00:35:36;34.40;32.46;36.74;;
66460;Laerm;58055;52.456;4.738;2022-12-07T00:35:47;34.16;32.02;36.27;;
66460;Laerm;58055;52.456;4.738;2022-12-07T00:36:05;34.36;32.17;36.50;;
66460;Laerm;58055;52.456;4.738;2022-12-07T00:36:17;34.22;32.43;36.79;;
66460;Laerm;58055;52.456;4.738;2022-12-07T00:36:28;34.29;32.36;36.47;;
66460;Laerm;58055;52.456;4.738;2022-12-07T00:36:38;34.64;32.45;36.93;;
66460;Laerm;58055;52.456;4.738;2022-12-07T00:36:49;35.11;32.87;37.25;;
66460;Laerm;58055;52.456;4.738;2022-12-07T00:36:59;36.36;34.01;38.85;;
66460;Laerm;58055;52.456;4.738;2022-12-07T00:37:10;39.32;34.10;43.15;;
66460;Laerm;58055;52.456;4.738;2022-12-07T00:37:20;36.40;34.49;40.78;;
66460;Laerm;58055;52.456;4.738;2022-12-07T00:37:30;35.49;34.02;37.25;;
66460;Laerm;58055;52.456;4.738;2022-12-07T00:37:40;35.64;33.07;39.53;;
66460;Laerm;58055;52.456;4.738;2022-12-07T00:37:51;34.44;32.56;36.27;;
66460;Laerm;58055;52.456;4.738;2022-12-07T00:38:01;34.49;32.88;37.04;;
66460;Laerm;58055;52.456;4.738;2022-12-07T00:38:11;35.97;32.64;42.85;;
66460;Laerm;58055;52.456;4.738;2022-12-07T00:38:22;34.39;32.43;36.67;;
66460;Laerm;58055;52.456;4.738;2022-12-07T00:38:32;34.94;32.06;37.59;;
66460;Laerm;58055;52.456;4.738;2022-12-07T00:38:43;34.64;33.14;37.08;;
66460;Laerm;58055;52.456;4.738;2022-12-07T00:38:54;34.62;32.86;36.65;;
66460;Laerm;58055;52.456;4.738;2022-12-07T00:39:04;34.39;32.38;36.99;;
66460;Laerm;58055;52.456;4.738;2022-12-07T00:39:15;35.12;32.72;37.97;;
66460;Laerm;58055;52.456;4.738;2022-12-07T00:39:25;35.35;32.94;37.65;;
66460;Laerm;58055;52.456;4.738;2022-12-07T00:39:38;34.86;33.01;38.24;;
66460;Laerm;58055;52.456;4.738;2022-12-07T00:39:48;34.71;32.47;37.72;;
66460;Laerm;58055;52.456;4.738;2022-12-07T00:39:58;35.21;32.88;38.24;;
66460;Laerm;58055;52.456;4.738;2022-12-07T00:40:09;34.88;32.37;36.89;;
66460;Laerm;58055;52.456;4.738;2022-12-07T00:40:19;34.77;32.74;38.36;;
66460;Laerm;58055;52.456;4.738;2022-12-07T00:40:29;35.67;33.27;39.17;;
66460;Laerm;58055;52.456;4.738;2022-12-07T00:40:40;36.11;33.98;39.02;;
66460;Laerm;58055;52.456;4.738;2022-12-07T00:40:57;36.93;32.57;43.92;;
66460;Laerm;58055;52.456;4.738;2022-12-07T00:41:17;35.63;33.36;38.21;;
66460;Laerm;58055;52.456;4.738;2022-12-07T00:41:28;35.76;33.34;38.88;;
66460;Laerm;58055;52.456;4.738;2022-12-07T00:41:39;35.49;32.82;38.61;;
66460;Laerm;58055;52.456;4.738;2022-12-07T00:41:49;37.61;32.90;53.23;;
66460;Laerm;58055;52.456;4.738;2022-12-07T00:41:59;36.49;33.57;40.59;;
66460;Laerm;58055;52.456;4.738;2022-12-07T00:42:10;35.88;33.69;39.50;;
66460;Laerm;58055;52.456;4.738;2022-12-07T00:42:20;34.51;32.53;36.77;;
66460;Laerm;58055;52.456;4.738;2022-12-07T00:42:30;34.75;32.45;38.49;;
66460;Laerm;58055;52.456;4.738;2022-12-07T00:42:41;35.07;32.95;38.49;;
66460;Laerm;58055;52.456;4.738;2022-12-07T00:42:51;34.72;32.55;37.66;;
66460;Laerm;58055;52.456;4.738;2022-12-07T00:43:01;34.08;32.26;35.66;;
66460;Laerm;58055;52.456;4.738;2022-12-07T00:43:11;33.87;32.18;35.55;;
66460;Laerm;58055;52.456;4.738;2022-12-07T00:43:22;36.05;32.84;49.13;;
66460;Laerm;58055;52.456;4.738;2022-12-07T00:43:33;35.68;32.99;38.43;;
66460;Laerm;58055;52.456;4.738;2022-12-07T00:43:44;37.15;33.32;43.32;;
66460;Laerm;58055;52.456;4.738;2022-12-07T00:43:55;40.02;34.34;46.71;;
66460;Laerm;58055;52.456;4.738;2022-12-07T00:44:05;34.48;32.45;37.10;;
66460;Laerm;58055;52.456;4.738;2022-12-07T00:44:15;34.36;32.06;40.08;;
66460;Laerm;58055;52.456;4.738;2022-12-07T00:44:26;34.26;32.44;36.05;;
66460;Laerm;58055;52.456;4.738;2022-12-07T00:44:36;33.95;32.37;36.65;;
66460;Laerm;58055;52.456;4.738;2022-12-07T00:44:46;33.59;31.94;35.58;;
66460;Laerm;58055;52.456;4.738;2022-12-07T00:44:56;33.43;31.76;37.73;;
66460;Laerm;58055;52.456;4.738;2022-12-07T00:45:07;33.43;31.81;35.46;;
66460;Laerm;58055;52.456;4.738;2022-12-07T00:45:17;34.39;32.35;44.55;;
66460;Laerm;58055;52.456;4.738;2022-12-07T00:45:27;33.74;32.27;36.80;;
66460;Laerm;58055;52.456;4.738;2022-12-07T00:45:38;36.31;32.30;48.47;;
66460;Laerm;58055;52.456;4.738;2022-12-07T00:45:48;34.59;32.10;48.12;;
66460;Laerm;58055;52.456;4.738;2022-12-07T00:45:58;33.86;31.74;40.85;;
66460;Laerm;58055;52.456;4.738;2022-12-07T00:46:09;33.37;31.80;35.47;;
66460;Laerm;58055;52.456;4.738;2022-12-07T00:46:19;32.88;31.26;34.66;;
66460;Laerm;58055;52.456;4.738;2022-12-07T00:46:30;33.28;31.21;35.69;;
66460;Laerm;58055;52.456;4.738;2022-12-07T00:46:40;33.92;31.78;37.34;;
66460;Laerm;58055;52.456;4.738;2022-12-07T00:46:50;35.20;32.45;42.17;;
66460;Laerm;58055;52.456;4.738;2022-12-07T00:47:01;34.94;32.84;39.92;;
66460;Laerm;58055;52.456;4.738;2022-12-07T00:47:11;34.20;32.06;39.04;;
66460;Laerm;58055;52.456;4.738;2022-12-07T00:47:21;33.86;31.99;36.11;;
66460;Laerm;58055;52.456;4.738;2022-12-07T00:47:31;33.96;32.12;35.78;;
66460;Laerm;58055;52.456;4.738;2022-12-07T00:47:42;33.97;32.25;36.79;;
66460;Laerm;58055;52.456;4.738;2022-12-07T00:47:52;34.10;32.61;38.00;;
66460;Laerm;58055;52.456;4.738;2022-12-07T00:48:02;34.64;32.08;38.21;;
66460;Laerm;58055;52.456;4.738;2022-12-07T00:48:12;34.24;32.46;39.64;;
66460;Laerm;58055;52.456;4.738;2022-12-07T00:48:23;33.92;31.42;39.37;;
66460;Laerm;58055;52.456;4.738;2022-12-07T00:48:33;34.03;31.92;39.04;;
66460;Laerm;58055;52.456;4.738;2022-12-07T00:48:44;33.56;31.70;38.06;;
66460;Laerm;58055;52.456;4.738;2022-12-07T00:48:55;33.71;31.74;36.73;;
66460;Laerm;58055;52.456;4.738;2022-12-07T00:49:05;34.99;32.31;47.06;;
66460;Laerm;58055;52.456;4.738;2022-12-07T00:49:15;35.71;32.61;43.19;;
66460;Laerm;58055;52.456;4.738;2022-12-07T00:49:26;36.69;32.50;47.49;;
66460;Laerm;58055;52.456;4.738;2022-12-07T00:49:36;69.90;36.98;81.55;;
66460;Laerm;58055;52.456;4.738;2022-12-07T00:49:46;62.07;34.98;72.96;;
66460;Laerm;58055;52.456;4.738;2022-12-07T00:49:56;47.20;33.91;58.83;;
66460;Laerm;58055;52.456;4.738;2022-12-07T00:50:07;46.68;36.94;57.91;;
66460;Laerm;58055;52.456;4.738;2022-12-07T00:50:17;54.63;38.24;67.67;;
66460;Laerm;58055;52.456;4.738;2022-12-07T00:50:27;59.65;35.55;73.25;;
66460;Laerm;58055;52.456;4.738;2022-12-07T00:50:37;43.12;33.83;56.71;;
66460;Laerm;58055;52.456;4.738;2022-12-07T00:50:48;39.37;33.19;51.55;;
66460;Laerm;58055;52.456;4.738;2022-12-07T00:50:58;42.82;34.74;53.08;;
66460;Laerm;58055;52.456;4.738;2022-12-07T00:51:12;46.73;36.43;60.18;;
66460;Laerm;58055;52.456;4.738;2022-12-07T00:51:23;41.38;34.62;52.25;;
66460;Laerm;58055;52.456;4.738;2022-12-07T00:51:34;48.84;35.37;63.44;;
66460;Laerm;58055;52.456;4.738;2022-12-07T00:51:45;57.87;38.12;68.86;;
66460;Laerm;58055;52.456;4.738;2022-12-07T00:51:57;53.27;35.04;65.11;;
66460;Laerm;58055;52.456;4.738;2022-12-07T00:52:07;58.69;35.28;73.97;;
66460;Laerm;58055;52.456;4.738;2022-12-07T00:52:18;35.78;33.64;48.12;;
66460;Laerm;58055;52.456;4.738;2022-12-07T00:52:28;38.34;33.34;52.62;;
66460;Laerm;58055;52.456;4.738;2022-12-07T00:52:38;38.35;32.90;48.83;;
66460;Laerm;58055;52.456;4.738;2022-12-07T00:52:48;35.54;32.36;40.92;;
66460;Laerm;58055;52.456;4.738;2022-12-07T00:52:59;34.58;32.79;39.70;;
66460;Laerm;58055;52.456;4.738;2022-12-07T00:53:09;41.19;34.03;54.88;;
66460;Laerm;58055;52.456;4.738;2022-12-07T00:53:19;58.91;33.66;70.56;;
66460;Laerm;58055;52.456;4.738;2022-12-07T00:53:30;55.36;37.47;65.47;;
66460;Laerm;58055;52.456;4.738;2022-12-07T00:53:40;57.74;34.76;71.99;;
66460;Laerm;58055;52.456;4.738;2022-12-07T00:53:51;50.97;35.09;59.80;;
66460;Laerm;58055;52.456;4.738;2022-12-07T00:54:01;48.33;34.10;61.63;;
66460;Laerm;58055;52.456;4.738;2022-12-07T00:54:11;40.13;33.38;54.69;;
66460;Laerm;58055;52.456;4.738;2022-12-07T00:54:21;42.31;34.06;56.16;;
66460;Laerm;58055;52.456;4.738;2022-12-07T00:54:31;47.02;33.69;60.28;;
66460;Laerm;58055;52.456;4.738;2022-12-07T00:54:42;53.01;34.23;68.28;;
66460;Laerm;58055;52.456;4.738;2022-12-07T00:54:52;37.25;32.88;50.94;;
66460;Laerm;58055;52.456;4.738;2022-12-07T00:55:02;37.92;34.51;48.76;;
66460;Laerm;58055;52.456;4.738;2022-12-07T00:55:13;40.82;37.76;49.38;;
66460;Laerm;58055;52.456;4.738;2022-12-07T00:55:23;41.84;39.98;49.89;;
66460;Laerm;58055;52.456;4.738;2022-12-07T00:55:34;49.87;42.11;59.99;;
66460;Laerm;58055;52.456;4.738;2022-12-07T00:55:44;45.52;41.34;59.11;;
66460;Laerm;58055;52.456;4.738;2022-12-07T00:55:55;43.81;40.91;55.56;;
66460;Laerm;58055;52.456;4.738;2022-12-07T00:56:07;46.35;40.16;56.76;;
66460;Laerm;58055;52.456;4.738;2022-12-07T00:56:18;41.62;36.27;51.64;;
66460;Laerm;58055;52.456;4.738;2022-12-07T00:56:29;45.19;36.54;56.73;;
66460;Laerm;58055;52.456;4.738;2022-12-07T00:56:39;48.93;36.66;63.64;;
66460;Laerm;58055;52.456;4.738;2022-12-07T00:56:49;37.96;34.29;51.06;;
66460;Laerm;58055;52.456;4.738;2022-12-07T00:57:00;36.87;35.20;44.64;;
66460;Laerm;58055;52.456;4.738;2022-12-07T00:57:10;35.62;33.64;40.91;;
66460;Laerm;58055;52.456;4.738;2022-12-07T00:57:20;35.78;33.84;49.24;;
66460;Laerm;58055;52.456;4.738;2022-12-07T00:57:30;35.93;33.82;41.33;;
66460;Laerm;58055;52.456;4.738;2022-12-07T00:57:41;37.90;34.16;46.54;;
66460;Laerm;58055;52.456;4.738;2022-12-07T00:57:51;42.48;37.87;60.59;;
66460;Laerm;58055;52.456;4.738;2022-12-07T00:58:02;51.30;39.91;65.14;;
66460;Laerm;58055;52.456;4.738;2022-12-07T00:58:12;44.08;38.36;56.32;;
66460;Laerm;58055;52.456;4.738;2022-12-07T00:58:23;40.70;35.97;53.67;;
66460;Laerm;58055;52.456;4.738;2022-12-07T00:58:33;40.96;34.44;55.71;;
66460;Laerm;58055;52.456;4.738;2022-12-07T00:58:44;36.55;33.53;44.39;;
66460;Laerm;58055;52.456;4.738;2022-12-07T00:59:00;46.58;33.90;61.56;;
66460;Laerm;58055;52.456;4.738;2022-12-07T00:59:11;54.14;38.23;67.68;;
66460;Laerm;58055;52.456;4.738;2022-12-07T00:59:23;47.56;39.74;59.42;;
66460;Laerm;58055;52.456;4.738;2022-12-07T00:59:33;45.40;40.96;53.60;;
66460;Laerm;58055;52.456;4.738;2022-12-07T00:59:44;47.99;43.81;55.19;;
66460;Laerm;58055;52.456;4.738;2022-12-07T00:59:54;50.44;47.55;61.47;;
66460;Laerm;58055;52.456;4.738;2022-12-07T01:00:07;51.46;45.09;62.40;;
66460;Laerm;58055;52.456;4.738;2022-12-07T01:00:18;51.48;45.15;62.02;;
66460;Laerm;58055;52.456;4.738;2022-12-07T01:00:28;49.57;46.12;59.97;;
66460;Laerm;58055;52.456;4.738;2022-12-07T01:00:39;51.46;48.82;58.21;;